createdAt,value
2017-01-28T00:00:50.630Z,4.01
2017-01-28T00:01:50.644Z,4.05
2017-01-28T00:02:50.647Z,4.04
2017-01-28T00:03:50.669Z,3.98
2017-01-28T00:04:50.675Z,4.01
2017-01-28T00:05:50.689Z,3.99
2017-01-28T00:06:50.692Z,3.98
2017-01-28T00:07:50.308Z,3.92
2017-01-28T00:08:50.719Z,3.98
2017-01-28T00:09:50.729Z,4.01
2017-01-28T00:10:50.346Z,4.01
2017-01-28T00:11:50.348Z,3.98
2017-01-28T00:12:50.355Z,3.94
2017-01-28T00:13:50.367Z,3.92
2017-01-28T00:14:50.777Z,3.91
2017-01-28T00:15:50.393Z,3.87
2017-01-28T00:16:50.795Z,3.91
2017-01-28T00:17:50.810Z,3.86
2017-01-28T00:18:50.819Z,3.91
2017-01-28T00:19:50.829Z,3.87
2017-01-28T00:20:50.452Z,3.86
2017-01-28T00:21:50.850Z,3.81
2017-01-28T00:22:50.467Z,3.91
2017-01-28T00:23:50.476Z,3.87
2017-01-28T00:24:50.493Z,3.81
2017-01-28T00:25:50.889Z,3.88
2017-01-28T00:26:50.900Z,3.91
2017-01-28T00:27:50.915Z,3.91
2017-01-28T00:28:50.929Z,3.92
2017-01-28T00:29:50.932Z,3.77
2017-01-28T00:30:50.940Z,3.76
2017-01-28T00:31:50.951Z,3.84
2017-01-28T00:32:51.127Z,3.81
2017-01-28T00:33:51.124Z,3.77
2017-01-28T00:34:51.263Z,3.81
2017-01-28T00:35:50.603Z,3.84
2017-01-28T00:36:50.622Z,3.8
2017-01-28T00:37:50.630Z,3.83
2017-01-28T00:38:51.019Z,3.83
2017-01-28T00:39:51.031Z,3.83
2017-01-28T00:40:51.044Z,3.81
2017-01-28T00:41:50.660Z,3.69
2017-01-28T00:42:51.074Z,3.7
2017-01-28T00:43:50.716Z,3.77
2017-01-28T00:44:51.089Z,3.69
2017-01-28T00:45:51.094Z,3.69
2017-01-28T00:46:51.116Z,3.7
2017-01-28T00:47:50.734Z,3.66
2017-01-28T00:48:50.741Z,3.76
2017-01-28T00:49:51.143Z,3.7
2017-01-28T00:50:50.757Z,3.76
2017-01-28T00:51:50.768Z,3.7
2017-01-28T00:52:51.172Z,3.6
2017-01-28T00:53:50.795Z,3.66
2017-01-28T00:54:51.206Z,3.66
2017-01-28T00:55:51.201Z,3.69
2017-01-28T00:56:51.235Z,3.68
2017-01-28T00:57:51.220Z,3.68
2017-01-28T00:58:51.231Z,3.69
2017-01-28T00:59:51.240Z,3.59
2017-01-28T01:00:51.248Z,3.69
2017-01-28T01:01:50.866Z,3.63
2017-01-28T01:02:51.271Z,3.65
2017-01-28T01:03:51.280Z,3.62
2017-01-28T01:04:51.293Z,3.65
2017-01-28T01:05:51.301Z,3.69
2017-01-28T01:06:51.313Z,3.69
2017-01-28T01:07:50.924Z,3.65
2017-01-28T01:08:50.546Z,3.63
2017-01-28T01:09:51.343Z,3.73
2017-01-28T01:10:51.351Z,3.68
2017-01-28T01:11:51.362Z,3.65
2017-01-28T01:12:51.374Z,3.69
2017-01-28T01:13:51.385Z,3.6
2017-01-28T01:14:51.389Z,3.6
2017-01-28T01:15:51.024Z,3.63
2017-01-28T01:16:51.420Z,3.65
2017-01-28T01:17:51.033Z,3.6
2017-01-28T01:18:51.438Z,3.48
2017-01-28T01:19:51.056Z,3.58
2017-01-28T01:20:51.468Z,3.51
2017-01-28T01:21:51.472Z,3.5
2017-01-28T01:22:51.483Z,3.59
2017-01-28T01:23:50.697Z,3.5
2017-01-28T01:24:51.496Z,3.56
2017-01-28T01:25:51.115Z,3.51
2017-01-28T01:26:51.124Z,3.55
2017-01-28T01:27:51.134Z,3.44
2017-01-28T01:28:51.162Z,3.51
2017-01-28T01:29:51.149Z,3.5
2017-01-28T01:30:51.553Z,3.51
2017-01-28T01:31:51.561Z,3.5
2017-01-28T01:32:51.579Z,3.44
2017-01-28T01:33:51.597Z,3.42
2017-01-28T01:34:51.597Z,3.44
2017-01-28T01:35:51.615Z,3.42
2017-01-28T01:36:51.643Z,3.44
2017-01-28T01:37:51.635Z,3.42
2017-01-28T01:38:51.635Z,3.45
2017-01-28T01:39:51.641Z,3.47
2017-01-28T01:40:51.650Z,3.44
2017-01-28T01:41:51.278Z,3.37
2017-01-28T01:42:51.683Z,3.4
2017-01-28T01:43:51.679Z,3.42
2017-01-28T01:44:51.693Z,3.44
2017-01-28T01:45:51.712Z,3.4
2017-01-28T01:46:51.718Z,3.41
2017-01-28T01:47:51.737Z,3.29
2017-01-28T01:48:51.739Z,3.28
2017-01-28T01:49:51.744Z,3.29
2017-01-28T01:50:51.751Z,3.31
2017-01-28T01:51:51.765Z,3.31
2017-01-28T01:52:51.778Z,3.32
2017-01-28T01:53:51.789Z,3.31
2017-01-28T01:54:51.802Z,3.31
2017-01-28T01:55:51.818Z,3.29
2017-01-28T01:56:51.829Z,3.29
2017-01-28T01:57:51.845Z,3.32
2017-01-28T01:58:51.849Z,3.29
2017-01-28T01:59:51.853Z,3.29
2017-01-28T02:00:51.872Z,3.26
2017-01-28T02:01:51.872Z,3.26
2017-01-28T02:02:51.887Z,3.25
2017-01-28T02:03:51.901Z,3.32
2017-01-28T02:04:51.515Z,3.29
2017-01-28T02:05:51.922Z,3.21
2017-01-28T02:06:51.968Z,3.29
2017-01-28T02:07:51.539Z,3.28
2017-01-28T02:08:51.945Z,3.26
2017-01-28T02:09:51.556Z,3.22
2017-01-28T02:10:51.576Z,3.26
2017-01-28T02:11:51.972Z,3.23
2017-01-28T02:12:51.596Z,3.36
2017-01-28T02:13:51.602Z,3.23
2017-01-28T02:14:51.634Z,3.25
2017-01-28T02:15:52.010Z,3.18
2017-01-28T02:16:52.029Z,3.19
2017-01-28T02:17:52.038Z,3.16
2017-01-28T02:18:52.050Z,3.18
2017-01-28T02:19:51.661Z,3.16
2017-01-28T02:20:52.058Z,3.25
2017-01-28T02:21:52.086Z,3.22
2017-01-28T02:22:52.096Z,3.19
2017-01-28T02:23:52.095Z,3.23
2017-01-28T02:24:52.109Z,3.28
2017-01-28T02:25:52.112Z,3.16
2017-01-28T02:26:52.126Z,3.19
2017-01-28T02:27:52.134Z,3.16
2017-01-28T02:28:52.153Z,3.21
2017-01-28T02:29:52.164Z,3.11
2017-01-28T02:30:52.161Z,3.16
2017-01-28T02:31:52.177Z,3.16
2017-01-28T02:32:52.192Z,3.11
2017-01-28T02:33:52.226Z,3.13
2017-01-28T02:34:52.219Z,3.1
2017-01-28T02:35:52.212Z,3.07
2017-01-28T02:36:52.227Z,3.19
2017-01-28T02:37:52.241Z,3.08
2017-01-28T02:38:52.250Z,3.05
2017-01-28T02:39:51.854Z,3.11
2017-01-28T02:40:52.259Z,3.1
2017-01-28T02:41:52.313Z,3.14
2017-01-28T02:42:52.284Z,3.1
2017-01-28T02:43:52.294Z,3.11
2017-01-28T02:44:52.306Z,3.11
2017-01-28T02:45:52.310Z,3.11
2017-01-28T02:46:52.328Z,3.1
2017-01-28T02:47:52.334Z,3.08
2017-01-28T02:48:51.963Z,3.04
2017-01-28T02:49:52.351Z,3.07
2017-01-28T02:50:52.375Z,3.01
2017-01-28T02:51:52.372Z,3.05
2017-01-28T02:52:52.386Z,3.01
2017-01-28T02:53:51.990Z,3.01
2017-01-28T02:54:52.399Z,3.04
2017-01-28T02:55:52.415Z,3
2017-01-28T02:56:52.416Z,2.98
2017-01-28T02:57:52.438Z,3
2017-01-28T02:58:52.049Z,3
2017-01-28T02:59:52.447Z,2.98
2017-01-28T03:00:52.468Z,3.03
2017-01-28T03:01:52.466Z,2.97
2017-01-28T03:02:52.090Z,2.98
2017-01-28T03:03:52.483Z,2.97
2017-01-28T03:04:52.514Z,3
2017-01-28T03:05:52.507Z,2.95
2017-01-28T03:06:52.519Z,3
2017-01-28T03:07:52.125Z,2.95
2017-01-28T03:08:52.541Z,2.89
2017-01-28T03:09:52.553Z,2.92
2017-01-28T03:10:52.556Z,2.86
2017-01-28T03:11:52.167Z,3.01
2017-01-28T03:12:52.580Z,2.89
2017-01-28T03:13:52.602Z,2.93
2017-01-28T03:14:52.601Z,2.9
2017-01-28T03:15:52.601Z,2.86
2017-01-28T03:16:52.606Z,2.85
2017-01-28T03:17:52.627Z,2.93
2017-01-28T03:18:52.643Z,2.95
2017-01-28T03:19:52.647Z,2.92
2017-01-28T03:20:52.653Z,2.9
2017-01-28T03:21:52.653Z,2.79
2017-01-28T03:22:52.677Z,2.9
2017-01-28T03:23:52.707Z,2.85
2017-01-28T03:24:52.682Z,2.79
2017-01-28T03:25:52.699Z,2.82
2017-01-28T03:26:52.715Z,2.87
2017-01-28T03:27:52.726Z,2.85
2017-01-28T03:28:52.735Z,2.87
2017-01-28T03:29:52.756Z,2.86
2017-01-28T03:30:52.765Z,2.85
2017-01-28T03:31:52.759Z,2.85
2017-01-28T03:32:52.774Z,2.87
2017-01-28T03:33:52.779Z,2.82
2017-01-28T03:34:52.778Z,2.87
2017-01-28T03:35:52.403Z,2.85
2017-01-28T03:36:52.813Z,2.85
2017-01-28T03:37:52.821Z,2.79
2017-01-28T03:38:52.833Z,2.82
2017-01-28T03:39:52.439Z,2.77
2017-01-28T03:40:52.847Z,2.85
2017-01-28T03:41:52.856Z,2.79
2017-01-28T03:42:52.865Z,2.83
2017-01-28T03:43:52.902Z,2.72
2017-01-28T03:44:52.494Z,2.82
2017-01-28T03:45:52.921Z,2.8
2017-01-28T03:46:52.910Z,2.79
2017-01-28T03:47:52.912Z,2.75
2017-01-28T03:48:52.912Z,2.79
2017-01-28T03:49:52.922Z,2.75
2017-01-28T03:50:52.964Z,2.71
2017-01-28T03:51:52.942Z,2.72
2017-01-28T03:52:52.963Z,2.75
2017-01-28T03:53:53.000Z,2.75
2017-01-28T03:54:52.582Z,2.71
2017-01-28T03:55:52.600Z,2.71
2017-01-28T03:56:52.995Z,2.75
2017-01-28T03:57:53.012Z,2.69
2017-01-28T03:58:53.018Z,2.71
2017-01-28T03:59:52.626Z,2.71
2017-01-28T04:00:52.636Z,2.71
2017-01-28T04:01:53.042Z,2.69
2017-01-28T04:02:53.049Z,2.71
2017-01-28T04:03:53.059Z,2.69
2017-01-28T04:04:53.071Z,2.69
2017-01-28T04:05:52.689Z,2.69
2017-01-28T04:06:53.083Z,2.62
2017-01-28T04:07:52.696Z,2.62
2017-01-28T04:08:53.102Z,2.69
2017-01-28T04:09:53.112Z,2.67
2017-01-28T04:10:52.719Z,2.68
2017-01-28T04:11:53.123Z,2.67
2017-01-28T04:12:53.138Z,2.71
2017-01-28T04:13:52.756Z,2.67
2017-01-28T04:14:53.174Z,2.64
2017-01-28T04:15:53.187Z,2.61
2017-01-28T04:16:53.177Z,2.68
2017-01-28T04:17:53.201Z,2.71
2017-01-28T04:18:52.804Z,2.67
2017-01-28T04:19:52.807Z,2.57
2017-01-28T04:20:53.225Z,2.67
2017-01-28T04:21:53.215Z,2.61
2017-01-28T04:22:52.848Z,2.69
2017-01-28T04:23:53.251Z,2.67
2017-01-28T04:24:52.881Z,2.57
2017-01-28T04:25:53.264Z,2.64
2017-01-28T04:26:52.874Z,2.61
2017-01-28T04:27:53.272Z,2.68
2017-01-28T04:28:53.313Z,2.6
2017-01-28T04:29:53.304Z,2.6
2017-01-28T04:30:52.928Z,2.62
2017-01-28T04:31:53.316Z,2.61
2017-01-28T04:32:53.324Z,2.56
2017-01-28T04:33:53.337Z,2.57
2017-01-28T04:34:53.360Z,2.57
2017-01-28T04:35:53.360Z,2.57
2017-01-28T04:36:53.361Z,2.57
2017-01-28T04:37:53.367Z,2.62
2017-01-28T04:38:53.389Z,2.56
2017-01-28T04:39:53.401Z,2.61
2017-01-28T04:40:53.403Z,2.56
2017-01-28T04:41:53.022Z,2.53
2017-01-28T04:42:53.432Z,2.6
2017-01-28T04:43:53.435Z,2.53
2017-01-28T04:44:53.049Z,2.51
2017-01-28T04:45:53.445Z,2.57
2017-01-28T04:46:53.058Z,2.6
2017-01-28T04:47:53.462Z,2.61
2017-01-28T04:48:53.481Z,2.6
2017-01-28T04:49:53.494Z,2.47
2017-01-28T04:50:53.506Z,2.56
2017-01-28T04:51:53.107Z,2.56
2017-01-28T04:52:53.509Z,2.49
2017-01-28T04:53:53.523Z,2.56
2017-01-28T04:54:53.529Z,2.6
2017-01-28T04:55:53.544Z,2.54
2017-01-28T04:56:53.559Z,2.49
2017-01-28T04:57:53.565Z,2.62
2017-01-28T04:58:53.586Z,2.56
2017-01-28T04:59:53.579Z,2.54
2017-01-28T05:00:53.202Z,2.54
2017-01-28T05:01:53.608Z,2.6
2017-01-28T05:02:53.600Z,2.53
2017-01-28T05:03:53.217Z,2.54
2017-01-28T05:04:53.637Z,2.5
2017-01-28T05:05:53.645Z,2.44
2017-01-28T05:06:53.641Z,2.56
2017-01-28T05:07:53.269Z,2.49
2017-01-28T05:08:53.388Z,2.5
2017-01-28T05:09:53.288Z,2.51
2017-01-28T05:10:53.388Z,2.5
2017-01-28T05:11:53.305Z,2.47
2017-01-28T05:12:53.305Z,2.5
2017-01-28T05:13:53.710Z,2.47
2017-01-28T05:14:53.323Z,2.47
2017-01-28T05:15:53.329Z,2.47
2017-01-28T05:16:53.344Z,2.5
2017-01-28T05:17:52.958Z,2.46
2017-01-28T05:18:53.367Z,2.49
2017-01-28T05:19:53.775Z,2.5
2017-01-28T05:20:53.764Z,2.49
2017-01-28T05:21:53.785Z,2.51
2017-01-28T05:22:53.399Z,2.5
2017-01-28T05:23:53.410Z,2.47
2017-01-28T05:24:53.814Z,2.36
2017-01-28T05:25:53.425Z,2.47
2017-01-28T05:26:53.425Z,2.42
2017-01-28T05:27:53.436Z,2.39
2017-01-28T05:28:53.053Z,2.49
2017-01-28T05:29:53.455Z,2.42
2017-01-28T05:30:53.872Z,2.49
2017-01-28T05:31:53.870Z,2.39
2017-01-28T05:32:53.886Z,2.35
2017-01-28T05:33:53.910Z,2.36
2017-01-28T05:34:53.908Z,2.39
2017-01-28T05:35:53.909Z,2.38
2017-01-28T05:36:53.526Z,2.39
2017-01-28T05:37:53.930Z,2.35
2017-01-28T05:38:53.946Z,2.31
2017-01-28T05:39:53.544Z,2.39
2017-01-28T05:40:53.968Z,2.47
2017-01-28T05:41:53.959Z,2.35
2017-01-28T05:42:53.571Z,2.36
2017-01-28T05:43:54.004Z,2.38
2017-01-28T05:44:54.003Z,2.39
2017-01-28T05:45:54.000Z,2.39
2017-01-28T05:46:53.628Z,2.39
2017-01-28T05:47:53.625Z,2.39
2017-01-28T05:48:53.656Z,2.42
2017-01-28T05:49:53.639Z,2.36
2017-01-28T05:50:54.049Z,2.35
2017-01-28T05:51:54.059Z,2.32
2017-01-28T05:52:53.679Z,2.39
2017-01-28T05:53:54.080Z,2.38
2017-01-28T05:54:54.087Z,2.35
2017-01-28T05:55:54.083Z,2.33
2017-01-28T05:56:54.099Z,2.28
2017-01-28T05:57:53.324Z,2.38
2017-01-28T05:58:54.122Z,2.32
2017-01-28T05:59:53.334Z,2.33
2017-01-28T06:00:54.149Z,2.35
2017-01-28T06:01:53.749Z,2.29
2017-01-28T06:02:54.153Z,2.35
2017-01-28T06:03:54.184Z,2.31
2017-01-28T06:04:54.169Z,2.32
2017-01-28T06:05:54.180Z,2.38
2017-01-28T06:06:54.203Z,2.39
2017-01-28T06:07:54.205Z,2.33
2017-01-28T06:08:54.212Z,2.31
2017-01-28T06:09:53.422Z,2.36
2017-01-28T06:10:54.246Z,2.31
2017-01-28T06:11:54.249Z,2.35
2017-01-28T06:12:54.252Z,2.29
2017-01-28T06:13:53.853Z,2.28
2017-01-28T06:14:54.264Z,2.31
2017-01-28T06:15:54.280Z,2.29
2017-01-28T06:16:54.289Z,2.31
2017-01-28T06:17:53.496Z,2.31
2017-01-28T06:18:54.294Z,2.38
2017-01-28T06:19:54.316Z,2.31
2017-01-28T06:20:53.920Z,2.33
2017-01-28T06:21:54.335Z,2.33
2017-01-28T06:22:54.336Z,2.36
2017-01-28T06:23:54.349Z,2.28
2017-01-28T06:24:54.359Z,2.33
2017-01-28T06:25:54.376Z,2.33
2017-01-28T06:26:54.387Z,2.29
2017-01-28T06:27:54.390Z,2.29
2017-01-28T06:28:54.400Z,2.31
2017-01-28T06:29:54.389Z,2.29
2017-01-28T06:30:54.041Z,2.28
2017-01-28T06:31:54.019Z,2.31
2017-01-28T06:32:54.423Z,2.29
2017-01-28T06:33:54.467Z,2.24
2017-01-28T06:34:54.443Z,2.33
2017-01-28T06:35:54.458Z,2.25
2017-01-28T06:36:54.473Z,2.28
2017-01-28T06:37:54.484Z,2.26
2017-01-28T06:38:54.473Z,2.26
2017-01-28T06:39:54.090Z,2.18
2017-01-28T06:40:54.490Z,2.31
2017-01-28T06:41:54.107Z,2.29
2017-01-28T06:42:54.510Z,2.17
2017-01-28T06:43:54.520Z,2.24
2017-01-28T06:44:54.552Z,2.26
2017-01-28T06:45:54.551Z,2.35
2017-01-28T06:46:54.539Z,2.2
2017-01-28T06:47:54.558Z,2.26
2017-01-28T06:48:54.595Z,2.25
2017-01-28T06:49:54.570Z,2.29
2017-01-28T06:50:54.587Z,2.25
2017-01-28T06:51:54.597Z,2.33
2017-01-28T06:52:54.206Z,2.35
2017-01-28T06:53:54.220Z,2.22
2017-01-28T06:54:54.631Z,2.29
2017-01-28T06:55:54.644Z,2.24
2017-01-28T06:56:54.646Z,2.24
2017-01-28T06:57:54.640Z,2.15
2017-01-28T06:58:54.656Z,2.26
2017-01-28T06:59:54.679Z,2.26
2017-01-28T07:00:54.290Z,2.17
2017-01-28T07:01:54.701Z,2.31
2017-01-28T07:02:54.706Z,2.31
2017-01-28T07:03:54.709Z,2.18
2017-01-28T07:04:54.719Z,2.2
2017-01-28T07:05:54.320Z,2.17
2017-01-28T07:06:54.730Z,2.15
2017-01-28T07:07:54.350Z,2.18
2017-01-28T07:08:54.760Z,2.14
2017-01-28T07:09:54.762Z,2.17
2017-01-28T07:10:54.361Z,2.2
2017-01-28T07:11:54.784Z,2.2
2017-01-28T07:12:54.778Z,2.24
2017-01-28T07:13:54.814Z,2.18
2017-01-28T07:14:54.812Z,2.24
2017-01-28T07:15:54.814Z,2.28
2017-01-28T07:16:54.814Z,2.22
2017-01-28T07:17:54.439Z,2.24
2017-01-28T07:18:54.842Z,2.26
2017-01-28T07:19:54.846Z,2.25
2017-01-28T07:20:54.851Z,2.17
2017-01-28T07:21:54.882Z,2.26
2017-01-28T07:22:54.878Z,2.24
2017-01-28T07:23:54.888Z,2.26
2017-01-28T07:24:54.510Z,2.24
2017-01-28T07:25:54.891Z,2.29
2017-01-28T07:26:54.916Z,2.29
2017-01-28T07:27:54.919Z,2.28
2017-01-28T07:28:54.931Z,2.28
2017-01-28T07:29:54.941Z,2.26
2017-01-28T07:30:54.991Z,2.25
2017-01-28T07:31:54.957Z,2.26
2017-01-28T07:32:54.976Z,2.28
2017-01-28T07:33:54.969Z,2.31
2017-01-28T07:34:54.981Z,2.29
2017-01-28T07:35:54.599Z,2.31
2017-01-28T07:36:55.004Z,2.33
2017-01-28T07:37:54.997Z,2.31
2017-01-28T07:38:55.022Z,2.29
2017-01-28T07:39:54.627Z,2.25
2017-01-28T07:40:55.028Z,2.29
2017-01-28T07:41:55.051Z,2.28
2017-01-28T07:42:55.060Z,2.31
2017-01-28T07:43:55.067Z,2.31
2017-01-28T07:44:55.074Z,2.26
2017-01-28T07:45:55.081Z,2.28
2017-01-28T07:46:55.094Z,2.33
2017-01-28T07:47:55.099Z,2.38
2017-01-28T07:48:55.112Z,2.36
2017-01-28T07:49:54.729Z,2.29
2017-01-28T07:50:55.135Z,2.39
2017-01-28T07:51:55.135Z,2.36
2017-01-28T07:52:55.157Z,2.47
2017-01-28T07:53:55.155Z,2.36
2017-01-28T07:54:55.164Z,2.33
2017-01-28T07:55:55.167Z,2.5
2017-01-28T07:56:54.782Z,2.53
2017-01-28T07:57:55.198Z,2.46
2017-01-28T07:58:55.204Z,2.46
2017-01-28T07:59:55.202Z,2.47
2017-01-28T08:00:55.223Z,2.47
2017-01-28T08:01:55.216Z,2.57
2017-01-28T08:02:55.237Z,2.54
2017-01-28T08:03:55.247Z,2.57
2017-01-28T08:04:55.258Z,2.56
2017-01-28T08:05:55.272Z,2.6
2017-01-28T08:06:55.278Z,2.56
2017-01-28T08:07:54.872Z,2.61
2017-01-28T08:08:55.287Z,2.6
2017-01-28T08:09:54.897Z,2.54
2017-01-28T08:10:55.330Z,2.64
2017-01-28T08:11:55.314Z,2.68
2017-01-28T08:12:55.331Z,2.62
2017-01-28T08:13:54.936Z,2.68
2017-01-28T08:14:55.348Z,2.62
2017-01-28T08:15:54.955Z,2.69
2017-01-28T08:16:55.357Z,2.72
2017-01-28T08:17:55.379Z,2.65
2017-01-28T08:18:55.377Z,2.71
2017-01-28T08:19:55.387Z,2.71
2017-01-28T08:20:55.008Z,2.72
2017-01-28T08:21:55.402Z,2.74
2017-01-28T08:22:54.626Z,2.77
2017-01-28T08:23:55.430Z,2.8
2017-01-28T08:24:55.442Z,2.75
2017-01-28T08:25:55.444Z,2.85
2017-01-28T08:26:55.462Z,2.79
2017-01-28T08:27:55.457Z,2.83
2017-01-28T08:28:55.464Z,2.89
2017-01-28T08:29:55.099Z,2.86
2017-01-28T08:30:55.694Z,2.86
2017-01-28T08:31:55.103Z,2.87
2017-01-28T08:32:55.504Z,2.92
2017-01-28T08:33:55.123Z,2.87
2017-01-28T08:34:55.534Z,2.93
2017-01-28T08:35:55.143Z,2.83
2017-01-28T08:36:55.542Z,2.92
2017-01-28T08:37:55.556Z,2.92
2017-01-28T08:38:55.556Z,2.86
2017-01-28T08:39:55.561Z,2.9
2017-01-28T08:40:55.576Z,2.95
2017-01-28T08:41:55.697Z,3.01
2017-01-28T08:42:55.603Z,3.04
2017-01-28T08:43:55.604Z,3.05
2017-01-28T08:44:55.609Z,3.1
2017-01-28T08:45:55.626Z,3.08
2017-01-28T08:46:55.640Z,3.16
2017-01-28T08:47:55.650Z,3.11
2017-01-28T08:48:55.676Z,3.23
2017-01-28T08:49:55.656Z,3.22
2017-01-28T08:50:55.670Z,3.18
2017-01-28T08:51:55.283Z,3.22
2017-01-28T08:52:55.683Z,3.36
2017-01-28T08:53:55.693Z,3.29
2017-01-28T08:54:55.706Z,3.25
2017-01-28T08:55:55.716Z,3.25
2017-01-28T08:56:55.727Z,3.21
2017-01-28T08:57:55.737Z,3.23
2017-01-28T08:58:55.754Z,3.31
2017-01-28T08:59:55.752Z,3.28
2017-01-28T09:00:55.762Z,3.31
2017-01-28T09:01:55.768Z,3.26
2017-01-28T09:02:55.778Z,3.26
2017-01-28T09:03:55.806Z,3.37
2017-01-28T09:04:55.794Z,3.31
2017-01-28T09:05:55.805Z,3.31
2017-01-28T09:06:55.824Z,3.25
2017-01-28T09:07:55.832Z,3.34
2017-01-28T09:08:55.846Z,3.31
2017-01-28T09:09:55.447Z,3.32
2017-01-28T09:10:55.458Z,3.44
2017-01-28T09:11:55.857Z,3.45
2017-01-28T09:12:55.872Z,3.42
2017-01-28T09:13:55.882Z,3.5
2017-01-28T09:14:55.893Z,3.5
2017-01-28T09:15:55.916Z,3.41
2017-01-28T09:16:55.906Z,3.48
2017-01-28T09:17:55.927Z,3.55
2017-01-28T09:18:55.938Z,3.55
2017-01-28T09:19:55.944Z,3.51
2017-01-28T09:20:55.941Z,3.47
2017-01-28T09:21:55.956Z,3.6
2017-01-28T09:22:55.970Z,3.53
2017-01-28T09:23:55.982Z,3.51
2017-01-28T09:24:56.011Z,3.53
2017-01-28T09:25:55.603Z,3.58
2017-01-28T09:26:56.005Z,3.56
2017-01-28T09:27:56.011Z,3.6
2017-01-28T09:28:56.024Z,3.53
2017-01-28T09:29:56.036Z,3.69
2017-01-28T09:30:56.038Z,3.68
2017-01-28T09:31:56.059Z,3.62
2017-01-28T09:32:56.058Z,3.68
2017-01-28T09:33:56.071Z,3.74
2017-01-28T09:34:55.676Z,3.77
2017-01-28T09:35:56.080Z,3.7
2017-01-28T09:36:56.117Z,3.73
2017-01-28T09:37:56.105Z,3.78
2017-01-28T09:38:56.125Z,3.84
2017-01-28T09:39:56.120Z,3.78
2017-01-28T09:40:56.145Z,3.81
2017-01-28T09:41:56.149Z,3.84
2017-01-28T09:42:56.155Z,3.83
2017-01-28T09:43:55.776Z,3.73
2017-01-28T09:44:56.173Z,3.8
2017-01-28T09:45:56.189Z,3.84
2017-01-28T09:46:56.198Z,3.8
2017-01-28T09:47:56.199Z,3.78
2017-01-28T09:48:56.215Z,3.87
2017-01-28T09:49:56.235Z,3.87
2017-01-28T09:50:56.245Z,3.88
2017-01-28T09:51:56.246Z,3.88
2017-01-28T09:52:56.264Z,3.96
2017-01-28T09:53:55.869Z,3.88
2017-01-28T09:54:55.871Z,3.98
2017-01-28T09:55:56.281Z,3.99
2017-01-28T09:56:56.289Z,3.98
2017-01-28T09:57:56.305Z,3.99
2017-01-28T09:58:56.319Z,4.04
2017-01-28T09:59:56.318Z,4.02
2017-01-28T10:00:56.333Z,3.98
2017-01-28T10:01:56.325Z,3.99
2017-01-28T10:02:56.351Z,4.13
2017-01-28T10:03:56.353Z,4.1
2017-01-28T10:04:56.361Z,4.16
2017-01-28T10:05:56.376Z,4.14
2017-01-28T10:06:56.003Z,4.14
2017-01-28T10:07:56.408Z,4.16
2017-01-28T10:08:56.408Z,4.2
2017-01-28T10:09:56.414Z,4.19
2017-01-28T10:10:56.421Z,4.1
2017-01-28T10:11:56.433Z,4.12
2017-01-28T10:12:56.447Z,4.28
2017-01-28T10:13:56.469Z,4.17
2017-01-28T10:14:56.462Z,4.23
2017-01-28T10:15:56.480Z,4.2
2017-01-28T10:16:56.492Z,4.31
2017-01-28T10:17:56.509Z,4.3
2017-01-28T10:18:56.504Z,4.28
2017-01-28T10:19:56.106Z,4.4
2017-01-28T10:20:56.121Z,4.34
2017-01-28T10:21:56.527Z,4.4
2017-01-28T10:22:56.150Z,4.34
2017-01-28T10:23:56.152Z,4.38
2017-01-28T10:24:56.156Z,4.45
2017-01-28T10:25:56.169Z,4.42
2017-01-28T10:26:56.180Z,4.45
2017-01-28T10:27:56.618Z,4.55
2017-01-28T10:28:56.207Z,4.58
2017-01-28T10:29:56.621Z,4.59
2017-01-28T10:30:56.233Z,4.66
2017-01-28T10:31:56.228Z,4.58
2017-01-28T10:32:56.648Z,4.59
2017-01-28T10:33:56.637Z,4.6
2017-01-28T10:34:56.260Z,4.7
2017-01-28T10:35:56.670Z,4.63
2017-01-28T10:36:56.285Z,4.73
2017-01-28T10:37:56.685Z,4.68
2017-01-28T10:38:56.301Z,4.78
2017-01-28T10:39:56.702Z,4.78
2017-01-28T10:40:56.717Z,4.86
2017-01-28T10:41:56.738Z,4.82
2017-01-28T10:42:56.741Z,4.9
2017-01-28T10:43:56.364Z,4.86
2017-01-28T10:44:56.361Z,4.92
2017-01-28T10:45:56.760Z,4.9
2017-01-28T10:46:56.777Z,4.89
2017-01-28T10:47:56.784Z,5.02
2017-01-28T10:48:56.824Z,4.97
2017-01-28T10:49:56.809Z,4.97
2017-01-28T10:50:56.809Z,4.99
2017-01-28T10:51:56.437Z,5.08
2017-01-28T10:52:56.837Z,5.11
2017-01-28T10:53:56.849Z,5.11
2017-01-28T10:54:56.870Z,5.14
2017-01-28T10:55:56.871Z,5.18
2017-01-28T10:56:56.884Z,5.18
2017-01-28T10:57:56.889Z,5.28
2017-01-28T10:58:56.501Z,5.21
2017-01-28T10:59:56.512Z,5.18
2017-01-28T11:00:56.946Z,5.23
2017-01-28T11:01:56.924Z,5.29
2017-01-28T11:02:56.940Z,5.26
2017-01-28T11:03:56.943Z,5.26
2017-01-28T11:04:56.966Z,5.29
2017-01-28T11:05:56.980Z,5.41
2017-01-28T11:06:56.616Z,5.35
2017-01-28T11:07:56.991Z,5.39
2017-01-28T11:08:56.996Z,5.44
2017-01-28T11:09:56.612Z,5.38
2017-01-28T11:10:57.031Z,5.41
2017-01-28T11:11:57.037Z,5.39
2017-01-28T11:12:57.058Z,5.47
2017-01-28T11:13:57.068Z,5.41
2017-01-28T11:14:57.062Z,5.47
2017-01-28T11:15:56.684Z,5.47
2017-01-28T11:16:57.086Z,5.48
2017-01-28T11:17:57.104Z,5.54
2017-01-28T11:18:57.112Z,5.61
2017-01-28T11:19:57.122Z,5.48
2017-01-28T11:20:57.125Z,5.62
2017-01-28T11:21:57.128Z,5.66
2017-01-28T11:22:57.152Z,5.65
2017-01-28T11:23:57.157Z,5.64
2017-01-28T11:24:57.166Z,5.61
2017-01-28T11:25:57.172Z,5.71
2017-01-28T11:26:57.190Z,5.65
2017-01-28T11:27:56.803Z,5.68
2017-01-28T11:28:57.211Z,5.71
2017-01-28T11:29:57.214Z,5.71
2017-01-28T11:30:56.837Z,5.79
2017-01-28T11:31:57.243Z,5.76
2017-01-28T11:32:57.252Z,5.73
2017-01-28T11:33:57.273Z,5.87
2017-01-28T11:34:57.282Z,5.84
2017-01-28T11:35:57.279Z,5.93
2017-01-28T11:36:57.291Z,5.9
2017-01-28T11:37:57.297Z,5.84
2017-01-28T11:38:57.316Z,5.9
2017-01-28T11:39:56.959Z,5.97
2017-01-28T11:40:57.348Z,5.97
2017-01-28T11:41:57.353Z,5.91
2017-01-28T11:42:56.961Z,5.99
2017-01-28T11:43:57.367Z,5.98
2017-01-28T11:44:57.387Z,6.04
2017-01-28T11:45:57.398Z,6.02
2017-01-28T11:46:57.405Z,5.98
2017-01-28T11:47:57.408Z,6.05
2017-01-28T11:48:57.431Z,6.04
2017-01-28T11:49:57.438Z,5.98
2017-01-28T11:50:57.450Z,6.05
2017-01-28T11:51:57.091Z,6.02
2017-01-28T11:52:57.472Z,6.04
2017-01-28T11:53:57.475Z,6.12
2017-01-28T11:54:57.497Z,6.14
2017-01-28T11:55:57.515Z,6.12
2017-01-28T11:56:57.523Z,6.16
2017-01-28T11:57:57.524Z,6.22
2017-01-28T11:58:57.534Z,6.27
2017-01-28T11:59:57.542Z,6.24
2017-01-28T12:00:57.560Z,6.28
2017-01-28T12:01:57.567Z,6.28
2017-01-28T12:02:57.581Z,6.22
2017-01-28T12:03:57.606Z,6.33
2017-01-28T12:04:57.598Z,6.27
2017-01-28T12:05:57.616Z,6.24
2017-01-28T12:06:57.710Z,6.2
2017-01-28T12:07:57.644Z,6.28
2017-01-28T12:08:57.645Z,6.31
2017-01-28T12:09:57.655Z,6.33
2017-01-28T12:10:57.676Z,6.35
2017-01-28T12:11:57.665Z,6.39
2017-01-28T12:12:57.688Z,6.35
2017-01-28T12:13:57.700Z,6.39
2017-01-28T12:14:57.716Z,6.38
2017-01-28T12:15:57.725Z,6.45
2017-01-28T12:16:57.738Z,6.41
2017-01-28T12:17:57.745Z,6.48
2017-01-28T12:18:57.755Z,6.49
2017-01-28T12:19:57.778Z,6.51
2017-01-28T12:20:57.796Z,6.56
2017-01-28T12:21:57.788Z,6.54
2017-01-28T12:22:57.804Z,6.54
2017-01-28T12:23:57.809Z,6.51
2017-01-28T12:24:57.835Z,6.57
2017-01-28T12:25:57.844Z,6.57
2017-01-28T12:26:57.839Z,6.52
2017-01-28T12:27:57.858Z,6.48
2017-01-28T12:28:57.861Z,6.54
2017-01-28T12:29:57.880Z,6.57
2017-01-28T12:30:57.895Z,6.62
2017-01-28T12:31:57.915Z,6.62
2017-01-28T12:32:57.916Z,6.67
2017-01-28T12:33:57.926Z,6.64
2017-01-28T12:34:57.541Z,6.74
2017-01-28T12:35:57.953Z,6.62
2017-01-28T12:36:57.989Z,6.62
2017-01-28T12:37:57.964Z,6.67
2017-01-28T12:38:57.989Z,6.6
2017-01-28T12:39:57.993Z,6.59
2017-01-28T12:40:58.043Z,6.59
2017-01-28T12:41:57.622Z,6.72
2017-01-28T12:42:58.032Z,6.62
2017-01-28T12:43:58.039Z,6.62
2017-01-28T12:44:58.045Z,6.69
2017-01-28T12:45:58.060Z,6.64
2017-01-28T12:46:58.073Z,6.66
2017-01-28T12:47:58.097Z,6.69
2017-01-28T12:48:58.095Z,6.67
2017-01-28T12:49:58.109Z,6.69
2017-01-28T12:50:58.126Z,6.6
2017-01-28T12:51:58.149Z,6.64
2017-01-28T12:52:58.156Z,6.62
2017-01-28T12:53:58.183Z,6.66
2017-01-28T12:54:58.203Z,6.59
2017-01-28T12:55:58.182Z,6.64
2017-01-28T12:56:58.205Z,6.67
2017-01-28T12:57:58.205Z,6.69
2017-01-28T12:58:58.219Z,6.64
2017-01-28T12:59:58.223Z,6.75
2017-01-28T13:00:58.236Z,6.64
2017-01-28T13:01:57.852Z,6.78
2017-01-28T13:02:58.275Z,6.75
2017-01-28T13:03:58.272Z,6.7
2017-01-28T13:04:57.501Z,6.67
2017-01-28T13:05:58.308Z,6.74
2017-01-28T13:06:58.313Z,6.75
2017-01-28T13:07:58.322Z,6.77
2017-01-28T13:08:58.363Z,6.74
2017-01-28T13:09:58.342Z,6.78
2017-01-28T13:10:58.363Z,6.78
2017-01-28T13:11:58.368Z,6.72
2017-01-28T13:12:58.390Z,6.78
2017-01-28T13:13:58.384Z,6.78
2017-01-28T13:14:58.409Z,6.75
2017-01-28T13:15:58.423Z,6.75
2017-01-28T13:16:58.428Z,6.77
2017-01-28T13:17:58.470Z,6.79
2017-01-28T13:18:58.462Z,6.77
2017-01-28T13:19:58.067Z,6.79
2017-01-28T13:20:58.476Z,6.78
2017-01-28T13:21:58.496Z,6.79